createdAt,value
2018-04-06T00:01:01.533Z,3.11
2018-04-06T00:02:10.361Z,3.06
2018-04-06T00:03:19.193Z,3.08
2018-04-06T00:04:28.018Z,3.1
2018-04-06T00:05:37.122Z,2.96
2018-04-06T00:06:46.222Z,3.03
2018-04-06T00:07:55.330Z,2.96
2018-04-06T00:09:04.163Z,2.97
2018-04-06T00:10:12.988Z,2.97
2018-04-06T00:11:22.236Z,2.97
2018-04-06T00:12:31.070Z,2.92
2018-04-06T00:13:39.894Z,2.87
2018-04-06T00:14:48.721Z,2.84
2018-04-06T00:15:57.548Z,2.84
2018-04-06T00:17:06.427Z,2.75
2018-04-06T00:18:15.269Z,2.75
2018-04-06T00:19:24.098Z,2.72
2018-04-06T00:20:33.209Z,2.75
2018-04-06T00:21:42.309Z,2.81
2018-04-06T00:22:51.385Z,2.67
2018-04-06T00:24:00.212Z,2.64
2018-04-06T00:25:09.040Z,2.6
2018-04-06T00:26:17.869Z,2.71
2018-04-06T00:27:26.698Z,2.67
2018-04-06T00:28:35.676Z,2.69
2018-04-06T00:29:44.501Z,2.67
2018-04-06T00:30:53.331Z,2.61
2018-04-06T00:32:02.161Z,2.64
2018-04-06T00:33:11.276Z,2.6
2018-04-06T00:34:20.101Z,2.63
2018-04-06T00:35:29.201Z,2.66
2018-04-06T00:36:38.310Z,2.63
2018-04-06T00:37:47.410Z,2.63
2018-04-06T00:38:56.238Z,2.59
2018-04-06T00:40:05.214Z,2.64
2018-04-06T00:41:14.043Z,2.48
2018-04-06T00:42:22.874Z,2.53
2018-04-06T00:43:31.701Z,2.52
2018-04-06T00:44:40.532Z,2.48
2018-04-06T00:45:49.634Z,2.54
2018-04-06T00:46:58.469Z,2.39
2018-04-06T00:48:07.574Z,2.46
2018-04-06T00:49:16.401Z,2.49
2018-04-06T00:50:25.229Z,2.46
2018-04-06T00:51:34.055Z,2.43
2018-04-06T00:52:42.884Z,2.41
2018-04-06T00:53:51.710Z,2.36
2018-04-06T00:55:00.541Z,2.41
2018-04-06T00:56:09.367Z,2.36
2018-04-06T00:57:18.347Z,2.36
2018-04-06T00:58:27.177Z,2.34
2018-04-06T00:59:36.280Z,2.35
2018-04-06T01:00:45.107Z,2.27
2018-04-06T01:01:54.211Z,2.31
2018-04-06T01:03:03.039Z,2.34
2018-04-06T01:04:11.866Z,2.31
2018-04-06T01:05:20.695Z,2.28
2018-04-06T01:06:29.797Z,2.31
2018-04-06T01:07:38.624Z,2.27
2018-04-06T01:08:47.604Z,2.34
2018-04-06T01:09:56.430Z,2.31
2018-04-06T01:11:05.259Z,2.3
2018-04-06T01:12:14.086Z,2.28
2018-04-06T01:13:22.912Z,2.25
2018-04-06T01:14:32.072Z,2.27
2018-04-06T01:15:40.897Z,2.31
2018-04-06T01:16:49.727Z,2.28
2018-04-06T01:17:58.555Z,2.31
2018-04-06T01:19:07.384Z,2.28
2018-04-06T01:20:16.211Z,2.24
2018-04-06T01:21:25.038Z,2.23
2018-04-06T01:22:33.863Z,2.17
2018-04-06T01:23:42.698Z,2.18
2018-04-06T01:24:52.083Z,2.18
2018-04-06T01:26:00.912Z,2.16
2018-04-06T01:27:09.740Z,2.14
2018-04-06T01:28:18.844Z,2.14
2018-04-06T01:29:27.671Z,2.14
2018-04-06T01:30:36.499Z,2.17
2018-04-06T01:31:45.704Z,2.05
2018-04-06T01:32:55.104Z,2.09
2018-04-06T01:34:04.206Z,2.1
2018-04-06T01:35:13.035Z,2.03
2018-04-06T01:36:22.141Z,2.05
2018-04-06T01:37:31.243Z,2.03
2018-04-06T01:38:40.071Z,2.06
2018-04-06T01:39:48.898Z,2.09
2018-04-06T01:40:57.731Z,2
2018-04-06T01:42:06.561Z,2.07
2018-04-06T01:43:15.384Z,2.05
2018-04-06T01:44:24.214Z,1.98
2018-04-06T01:45:33.043Z,2.05
2018-04-06T01:46:42.195Z,2.06
2018-04-06T01:47:50.966Z,1.93
2018-04-06T01:48:59.944Z,1.99
2018-04-06T01:50:09.045Z,1.98
2018-04-06T01:51:17.872Z,1.99
2018-04-06T01:52:26.699Z,2
2018-04-06T01:53:35.527Z,2
2018-04-06T01:54:44.404Z,1.83
2018-04-06T01:55:53.231Z,1.99
2018-04-06T01:57:02.340Z,1.99
2018-04-06T01:58:11.172Z,2.03
2018-04-06T01:59:20.000Z,1.93
2018-04-06T02:00:29.125Z,1.91
2018-04-06T02:01:37.953Z,1.87
2018-04-06T02:02:46.779Z,1.91
2018-04-06T02:03:55.607Z,1.84
2018-04-06T02:05:04.433Z,1.98
2018-04-06T02:06:13.639Z,1.91
2018-04-06T02:07:22.466Z,1.9
2018-04-06T02:08:31.294Z,1.9
2018-04-06T02:09:40.118Z,1.8
2018-04-06T02:10:48.945Z,1.86
2018-04-06T02:11:57.774Z,1.95
2018-04-06T02:13:06.601Z,1.95
2018-04-06T02:14:15.429Z,1.87
2018-04-06T02:15:24.259Z,1.86
2018-04-06T02:16:33.084Z,1.8
2018-04-06T02:17:41.912Z,1.88
2018-04-06T02:18:50.735Z,1.8
2018-04-06T02:19:59.563Z,1.8
2018-04-06T02:21:08.668Z,1.83
2018-04-06T02:22:17.494Z,1.76
2018-04-06T02:23:26.472Z,1.79
2018-04-06T02:24:35.317Z,1.77
2018-04-06T02:25:44.128Z,1.7
2018-04-06T02:26:53.230Z,1.77
2018-04-06T02:28:02.338Z,1.79
2018-04-06T02:29:11.217Z,1.77
2018-04-06T02:30:20.045Z,1.81
2018-04-06T02:31:28.873Z,1.81
2018-04-06T02:32:37.703Z,1.8
2018-04-06T02:33:46.526Z,1.76
2018-04-06T02:34:55.353Z,1.81
2018-04-06T02:36:04.182Z,2
2018-04-06T02:37:13.009Z,1.83
2018-04-06T02:38:21.837Z,1.95
2018-04-06T02:39:30.666Z,1.84
2018-04-06T02:40:39.783Z,1.87
2018-04-06T02:41:48.609Z,1.72
2018-04-06T02:42:57.439Z,1.86
2018-04-06T02:44:06.267Z,1.8
2018-04-06T02:45:15.105Z,1.79
2018-04-06T02:46:24.369Z,1.76
2018-04-06T02:47:33.200Z,1.68
2018-04-06T02:48:42.029Z,1.65
2018-04-06T02:49:50.857Z,1.65
2018-04-06T02:50:59.684Z,1.65
2018-04-06T02:52:08.614Z,1.73
2018-04-06T02:53:17.441Z,1.66
2018-04-06T02:54:26.267Z,1.79
2018-04-06T02:55:35.095Z,1.77
2018-04-06T02:56:43.925Z,1.66
2018-04-06T02:57:52.804Z,1.73
2018-04-06T02:59:01.634Z,1.72
2018-04-06T03:00:10.462Z,1.68
2018-04-06T03:01:19.566Z,1.68
2018-04-06T03:02:28.400Z,1.63
2018-04-06T03:03:37.274Z,1.69
2018-04-06T03:04:46.097Z,1.66
2018-04-06T03:05:54.924Z,1.69
2018-04-06T03:07:03.751Z,1.77
2018-04-06T03:08:12.577Z,1.79
2018-04-06T03:09:21.539Z,1.73
2018-04-06T03:10:30.331Z,1.6
2018-04-06T03:11:39.161Z,1.77
2018-04-06T03:12:47.989Z,1.66
2018-04-06T03:13:56.818Z,1.6
2018-04-06T03:15:05.646Z,1.6
2018-04-06T03:16:14.477Z,1.58
2018-04-06T03:17:23.573Z,1.59
2018-04-06T03:18:32.400Z,1.58
2018-04-06T03:19:41.227Z,1.55
2018-04-06T03:20:50.205Z,1.59
2018-04-06T03:21:59.032Z,1.55
2018-04-06T03:23:07.859Z,1.58
2018-04-06T03:24:16.687Z,1.6
2018-04-06T03:25:25.514Z,1.5
2018-04-06T03:26:34.441Z,1.52
2018-04-06T03:27:43.266Z,1.59
2018-04-06T03:28:52.091Z,1.58
2018-04-06T03:30:00.920Z,1.55
2018-04-06T03:31:09.748Z,1.7
2018-04-06T03:32:19.153Z,1.63
2018-04-06T03:33:27.985Z,1.68
2018-04-06T03:34:37.090Z,1.73
2018-04-06T03:35:45.916Z,1.73
2018-04-06T03:36:55.299Z,1.66
2018-04-06T03:38:04.377Z,1.72
2018-04-06T03:39:13.484Z,1.66
2018-04-06T03:40:22.309Z,1.66
2018-04-06T03:41:31.136Z,1.55
2018-04-06T03:42:39.963Z,1.59
2018-04-06T03:43:48.941Z,1.5
2018-04-06T03:44:57.768Z,1.45
2018-04-06T03:46:06.595Z,1.5
2018-04-06T03:47:15.423Z,1.5
2018-04-06T03:48:24.249Z,1.42
2018-04-06T03:49:33.325Z,1.47
2018-04-06T03:50:42.151Z,1.41
2018-04-06T03:51:50.982Z,1.42
2018-04-06T03:53:00.082Z,1.32
2018-04-06T03:54:08.912Z,1.3
2018-04-06T03:55:18.062Z,1.23
2018-04-06T03:56:26.890Z,1.24
2018-04-06T03:57:35.716Z,1.22
2018-04-06T03:58:44.542Z,1.3
2018-04-06T03:59:53.367Z,1.3
2018-04-06T04:01:02.244Z,1.26
2018-04-06T04:02:11.070Z,1.37
2018-04-06T04:03:19.897Z,1.4
2018-04-06T04:04:28.728Z,1.42
2018-04-06T04:05:37.831Z,1.4
2018-04-06T04:06:46.658Z,1.45
2018-04-06T04:07:55.485Z,1.47
2018-04-06T04:09:04.313Z,1.47
2018-04-06T04:10:13.139Z,1.51
2018-04-06T04:11:21.967Z,1.41
2018-04-06T04:12:31.240Z,1.36
2018-04-06T04:13:40.343Z,1.4
2018-04-06T04:14:49.168Z,1.4
2018-04-06T04:15:57.994Z,1.48
2018-04-06T04:17:06.819Z,1.42
2018-04-06T04:18:15.997Z,1.44
2018-04-06T04:19:25.108Z,1.42
2018-04-06T04:20:34.207Z,1.44
2018-04-06T04:21:43.044Z,1.44
2018-04-06T04:22:51.871Z,1.47
2018-04-06T04:24:00.748Z,1.42
2018-04-06T04:25:09.572Z,1.41
2018-04-06T04:26:18.676Z,1.45
2018-04-06T04:27:27.509Z,1.42
2018-04-06T04:28:36.333Z,1.41
2018-04-06T04:29:45.209Z,1.37
2018-04-06T04:30:54.036Z,1.36
2018-04-06T04:32:02.861Z,1.36
2018-04-06T04:33:11.963Z,1.34
2018-04-06T04:34:20.788Z,1.3
2018-04-06T04:35:30.145Z,1.34
2018-04-06T04:36:39.244Z,1.32
2018-04-06T04:37:48.074Z,1.33
2018-04-06T04:38:56.900Z,1.26
2018-04-06T04:40:06.284Z,1.27
2018-04-06T04:41:15.260Z,1.32
2018-04-06T04:42:24.363Z,1.26
2018-04-06T04:43:33.467Z,1.26
2018-04-06T04:44:42.293Z,1.27
2018-04-06T04:45:51.118Z,1.27
2018-04-06T04:46:59.944Z,1.26
2018-04-06T04:48:09.068Z,1.27
2018-04-06T04:49:17.894Z,1.26
2018-04-06T04:50:26.721Z,1.26
2018-04-06T04:51:35.551Z,1.29
2018-04-06T04:52:44.704Z,1.26
2018-04-06T04:53:53.817Z,1.26
2018-04-06T04:55:02.643Z,1.23
2018-04-06T04:56:11.468Z,1.15
2018-04-06T04:57:20.298Z,1.18
2018-04-06T04:58:29.467Z,1.16
2018-04-06T04:59:38.562Z,1.12
2018-04-06T05:00:47.389Z,1.14
2018-04-06T05:01:56.213Z,1.14
2018-04-06T05:03:05.318Z,1.15
2018-04-06T05:04:14.192Z,1.16
2018-04-06T05:05:23.019Z,1.12
2018-04-06T05:06:31.851Z,1.2
2018-04-06T05:07:40.676Z,1.12
2018-04-06T05:08:49.785Z,1.2
2018-04-06T05:09:58.814Z,1.12
2018-04-06T05:11:07.643Z,1.08
2018-04-06T05:12:16.743Z,1.09
2018-04-06T05:13:25.570Z,1.05
2018-04-06T05:14:34.397Z,1.05
2018-04-06T05:15:43.274Z,1.09
2018-04-06T05:16:52.100Z,1.11
2018-04-06T05:18:00.927Z,1.08
2018-04-06T05:19:09.754Z,1.05
2018-04-06T05:20:18.580Z,1.12
2018-04-06T05:21:27.560Z,1.11
2018-04-06T05:22:36.385Z,1.15
2018-04-06T05:23:45.210Z,1.09
2018-04-06T05:24:54.037Z,1.12
2018-04-06T05:26:02.865Z,1.18
2018-04-06T05:27:11.687Z,1.22
2018-04-06T05:28:20.511Z,1.2
2018-04-06T05:29:29.615Z,1.24
2018-04-06T05:30:38.445Z,1.24
2018-04-06T05:31:47.267Z,1.27
2018-04-06T05:32:56.395Z,1.33
2018-04-06T05:34:05.226Z,1.3
2018-04-06T05:35:14.051Z,1.26
2018-04-06T05:36:22.878Z,1.27
2018-04-06T05:37:31.754Z,1.4
2018-04-06T05:38:40.848Z,1.41
2018-04-06T05:39:49.660Z,1.36
2018-04-06T05:40:58.778Z,1.4
2018-04-06T05:42:07.605Z,1.45
2018-04-06T05:43:16.431Z,1.47
2018-04-06T05:44:25.259Z,1.45
2018-04-06T05:45:34.184Z,1.52
2018-04-06T05:46:43.577Z,1.52
2018-04-06T05:47:52.400Z,1.52
2018-04-06T05:49:01.506Z,1.52
2018-04-06T05:50:10.431Z,1.55
2018-04-06T05:51:19.216Z,1.62
2018-04-06T05:52:28.035Z,1.62
2018-04-06T05:53:37.141Z,1.59
2018-04-06T05:54:45.965Z,1.6
2018-04-06T05:55:54.993Z,1.66
2018-04-06T05:57:03.822Z,1.66
2018-04-06T05:58:12.655Z,1.69
2018-04-06T05:59:21.483Z,1.68
2018-04-06T06:00:30.308Z,1.79
2018-04-06T06:01:39.411Z,1.73
2018-04-06T06:02:48.241Z,1.79
2018-04-06T06:03:57.068Z,1.83
2018-04-06T06:05:05.893Z,1.8
2018-04-06T06:06:14.727Z,1.83
2018-04-06T06:07:23.927Z,1.93
2018-04-06T06:08:32.755Z,1.83
2018-04-06T06:09:41.584Z,1.86
2018-04-06T06:10:50.412Z,1.83
2018-04-06T06:11:59.244Z,1.95
2018-04-06T06:13:08.372Z,2.02
2018-04-06T06:14:17.200Z,2.1
2018-04-06T06:15:26.030Z,2.02
2018-04-06T06:16:34.861Z,1.95
2018-04-06T06:17:43.690Z,2.05
2018-04-06T06:18:52.667Z,2.09
2018-04-06T06:20:01.494Z,2.12
2018-04-06T06:21:10.602Z,2.12
2018-04-06T06:22:19.434Z,2.18
2018-04-06T06:23:28.536Z,2.14
2018-04-06T06:24:37.467Z,2.27
2018-04-06T06:25:46.292Z,2.25
2018-04-06T06:26:55.123Z,2.28
2018-04-06T06:28:03.950Z,2.28
2018-04-06T06:29:12.824Z,2.21
2018-04-06T06:30:22.006Z,2.23
2018-04-06T06:31:30.833Z,2.31
2018-04-06T06:32:39.937Z,2.3
2018-04-06T06:33:48.765Z,2.3
2018-04-06T06:34:57.598Z,2.31
2018-04-06T06:36:06.435Z,2.39
2018-04-06T06:37:15.268Z,2.46
2018-04-06T06:38:24.092Z,2.53
2018-04-06T06:39:32.921Z,2.48
2018-04-06T06:40:41.753Z,2.46
2018-04-06T06:41:50.783Z,2.54
2018-04-06T06:42:59.719Z,2.59
2018-04-06T06:44:08.737Z,2.59
2018-04-06T06:45:17.840Z,2.57
2018-04-06T06:46:27.228Z,2.52
2018-04-06T06:47:36.056Z,2.57
2018-04-06T06:48:44.884Z,2.72
2018-04-06T06:49:53.713Z,2.74
2018-04-06T06:51:02.541Z,2.69
2018-04-06T06:52:11.644Z,2.74
2018-04-06T06:53:20.570Z,2.77
2018-04-06T06:54:29.401Z,2.79
2018-04-06T06:55:38.229Z,2.84
2018-04-06T06:56:47.059Z,2.92
2018-04-06T06:57:55.886Z,2.82
2018-04-06T06:59:04.766Z,2.85
2018-04-06T07:00:14.146Z,2.93
2018-04-06T07:01:22.981Z,3
2018-04-06T07:02:31.808Z,2.96
2018-04-06T07:03:40.640Z,2.97
2018-04-06T07:04:49.726Z,2.99
2018-04-06T07:05:58.547Z,3.1
2018-04-06T07:07:07.375Z,3.05
2018-04-06T07:08:16.479Z,3.13
2018-04-06T07:09:25.307Z,3.11
2018-04-06T07:10:34.193Z,3.05
2018-04-06T07:11:43.015Z,3.2
2018-04-06T07:12:52.121Z,3.14
2018-04-06T07:14:01.282Z,3.15
2018-04-06T07:15:10.061Z,3.31
2018-04-06T07:16:18.937Z,3.28
2018-04-06T07:17:27.768Z,3.4
2018-04-06T07:18:36.874Z,3.36
2018-04-06T07:19:45.704Z,3.35
2018-04-06T07:20:54.533Z,3.42
2018-04-06T07:22:03.612Z,3.5
2018-04-06T07:23:12.444Z,3.54
2018-04-06T07:24:21.271Z,3.51
2018-04-06T07:25:30.099Z,3.52
2018-04-06T07:26:38.930Z,3.66
2018-04-06T07:27:47.819Z,3.65
2018-04-06T07:28:56.646Z,3.7
2018-04-06T07:30:05.478Z,3.65
2018-04-06T07:31:14.311Z,3.76
2018-04-06T07:32:23.726Z,3.87
2018-04-06T07:33:32.882Z,4.05
2018-04-06T07:34:41.713Z,4.11
2018-04-06T07:35:50.546Z,3.94
2018-04-06T07:36:59.374Z,4.04
2018-04-06T07:38:08.203Z,4.06
2018-04-06T07:39:17.194Z,4.04
2018-04-06T07:40:26.015Z,4.04
2018-04-06T07:41:34.841Z,4.08
2018-04-06T07:42:43.669Z,4.02
2018-04-06T07:43:52.504Z,4.16
2018-04-06T07:45:01.909Z,4.22
2018-04-06T07:46:11.015Z,4.3
2018-04-06T07:47:19.843Z,4.24
2018-04-06T07:48:28.672Z,4.29
2018-04-06T07:49:37.502Z,4.3
2018-04-06T07:50:46.393Z,4.34
2018-04-06T07:51:55.164Z,4.32
2018-04-06T07:53:04.268Z,4.29
2018-04-06T07:54:13.096Z,4.29
2018-04-06T07:55:21.929Z,4.3
2018-04-06T07:56:30.857Z,4.32
2018-04-06T07:57:39.688Z,4.29
2018-04-06T07:58:48.518Z,4.44
2018-04-06T07:59:57.350Z,4.6
2018-04-06T08:01:06.459Z,4.73
2018-04-06T08:02:15.387Z,4.66
2018-04-06T08:03:24.261Z,4.7
2018-04-06T08:04:33.048Z,4.78
2018-04-06T08:05:42.204Z,4.94
2018-04-06T08:06:51.036Z,5
2018-04-06T08:08:00.074Z,5.04
2018-04-06T08:09:09.189Z,5.06
2018-04-06T08:10:18.292Z,5.04
2018-04-06T08:11:27.397Z,5.04
2018-04-06T08:12:36.227Z,5.09
2018-04-06T08:13:45.108Z,4.97
2018-04-06T08:14:54.216Z,5.03
2018-04-06T08:16:03.058Z,5.1
2018-04-06T08:17:12.720Z,5.22
2018-04-06T08:18:21.550Z,5.35
2018-04-06T08:19:30.988Z,5.58
2018-04-06T08:20:40.147Z,5.68
2018-04-06T08:21:49.202Z,5.67
2018-04-06T08:22:58.033Z,5.83
2018-04-06T08:24:06.863Z,5.9
2018-04-06T08:25:15.745Z,5.94
2018-04-06T08:26:24.916Z,6.09
2018-04-06T08:27:33.719Z,6.19
2018-04-06T08:28:42.548Z,6.27
2018-04-06T08:29:51.380Z,6.3
2018-04-06T08:31:00.494Z,6.41
2018-04-06T08:32:09.599Z,6.37
2018-04-06T08:33:18.427Z,6.28
2018-04-06T08:34:27.258Z,6.21
2018-04-06T08:35:36.088Z,6.14
2018-04-06T08:36:44.973Z,6.12
2018-04-06T08:37:53.809Z,6.25
2018-04-06T08:39:02.636Z,6.27
2018-04-06T08:40:11.467Z,6.44
2018-04-06T08:41:20.298Z,6.48
2018-04-06T08:42:29.220Z,6.55
2018-04-06T08:43:38.012Z,6.51
2018-04-06T08:44:46.843Z,6.71
2018-04-06T08:45:55.675Z,6.62
2018-04-06T08:47:04.783Z,6.48
2018-04-06T08:48:13.667Z,6.66
2018-04-06T08:49:22.498Z,6.66
2018-04-06T08:50:31.331Z,6.62
2018-04-06T08:51:40.163Z,6.79
2018-04-06T08:52:48.999Z,6.87
2018-04-06T08:53:58.128Z,6.89
2018-04-06T08:55:06.960Z,6.92
2018-04-06T08:56:16.069Z,6.92
2018-04-06T08:57:25.179Z,6.99
2018-04-06T08:58:34.010Z,7.02
2018-04-06T08:59:43.367Z,6.99
2018-04-06T09:00:52.202Z,7.21
2018-04-06T09:02:01.318Z,7.24
2018-04-06T09:03:10.151Z,7.16
2018-04-06T09:04:19.011Z,7.28
2018-04-06T09:05:28.013Z,7.21
2018-04-06T09:06:36.846Z,7.3
2018-04-06T09:07:45.679Z,7.3
2018-04-06T09:08:54.510Z,7.31
2018-04-06T09:10:03.341Z,7.32
2018-04-06T09:11:12.403Z,7.34
2018-04-06T09:12:21.210Z,7.52
2018-04-06T09:13:30.042Z,7.52
2018-04-06T09:14:38.877Z,7.55
2018-04-06T09:15:47.999Z,7.48
2018-04-06T09:16:56.833Z,7.57
2018-04-06T09:18:05.666Z,7.85
2018-04-06T09:19:14.497Z,7.83
2018-04-06T09:20:23.330Z,7.92
2018-04-06T09:21:32.166Z,7.95
2018-04-06T09:22:41.149Z,8.05
2018-04-06T09:23:49.984Z,8.08
2018-04-06T09:24:58.817Z,8.08
2018-04-06T09:26:07.650Z,8.11
2018-04-06T09:27:16.484Z,8.1
2018-04-06T09:28:25.318Z,8.12
2018-04-06T09:29:34.426Z,8.18
2018-04-06T09:30:43.263Z,8.28
2018-04-06T09:31:52.093Z,8.38
2018-04-06T09:33:00.925Z,8.3
2018-04-06T09:34:09.911Z,8.26
2018-04-06T09:35:18.744Z,8.43
2018-04-06T09:36:27.583Z,8.4
2018-04-06T09:37:36.423Z,8.53
2018-04-06T09:38:45.246Z,8.55
2018-04-06T09:39:54.382Z,8.52
2018-04-06T09:41:03.216Z,8.56
2018-04-06T09:42:12.049Z,8.58
2018-04-06T09:43:20.882Z,8.41
2018-04-06T09:44:29.714Z,8.43
2018-04-06T09:45:38.597Z,8.34
2018-04-06T09:46:47.433Z,8.34
2018-04-06T09:47:56.268Z,8.58
2018-04-06T09:49:05.101Z,8.61
2018-04-06T09:50:13.935Z,8.71
2018-04-06T09:51:22.769Z,8.8
2018-04-06T09:52:31.884Z,8.71
2018-04-06T09:53:40.714Z,8.71
2018-04-06T09:54:49.555Z,8.7
2018-04-06T09:55:58.378Z,8.94
2018-04-06T09:57:07.635Z,8.92
2018-04-06T09:58:16.468Z,8.96
2018-04-06T09:59:25.302Z,9.11
2018-04-06T10:00:34.136Z,9.02
2018-04-06T10:01:43.248Z,9.15
2018-04-06T10:02:52.143Z,9.11
2018-04-06T10:04:00.965Z,9.14
2018-04-06T10:05:10.351Z,9.13
2018-04-06T10:06:19.186Z,9.21
2018-04-06T10:07:28.020Z,9.31
2018-04-06T10:08:37.230Z,9.23
2018-04-06T10:09:46.061Z,9.33
2018-04-06T10:10:54.893Z,9.36
2018-04-06T10:12:03.729Z,9.26
2018-04-06T10:13:12.562Z,9.23
2018-04-06T10:14:21.447Z,9.35
2018-04-06T10:15:30.278Z,9.33
2018-04-06T10:16:39.114Z,9.36
2018-04-06T10:17:47.947Z,9.48
2018-04-06T10:18:56.779Z,9.53
2018-04-06T10:20:05.662Z,9.6
2018-04-06T10:21:14.770Z,9.66
2018-04-06T10:22:23.654Z,9.78
2018-04-06T10:23:32.487Z,9.93
2018-04-06T10:24:41.320Z,9.79
2018-04-06T10:25:50.303Z,9.91
2018-04-06T10:26:59.145Z,9.79
2018-04-06T10:28:08.033Z,9.79
2018-04-06T10:29:17.083Z,9.76
2018-04-06T10:30:25.914Z,9.96
2018-04-06T10:31:34.850Z,9.99
2018-04-06T10:32:44.245Z,10.04
2018-04-06T10:33:53.078Z,9.97
2018-04-06T10:35:02.189Z,9.96
2018-04-06T10:36:11.023Z,9.91
2018-04-06T10:37:20.137Z,9.9
2018-04-06T10:38:28.968Z,10.07
2018-04-06T10:39:37.800Z,10.26
2018-04-06T10:40:46.633Z,10.18
2018-04-06T10:41:55.469Z,10.25
2018-04-06T10:43:04.354Z,10.33
2018-04-06T10:44:13.187Z,10.36
2018-04-06T10:45:22.025Z,10.4
2018-04-06T10:46:30.856Z,10.36
2018-04-06T10:47:39.692Z,10.25
2018-04-06T10:48:48.774Z,10.3
2018-04-06T10:49:57.613Z,10.42
2018-04-06T10:51:06.728Z,10.56
2018-04-06T10:52:15.562Z,10.7
2018-04-06T10:53:24.427Z,10.66
2018-04-06T10:54:33.694Z,10.84
2018-04-06T10:55:42.525Z,10.84
2018-04-06T10:56:51.358Z,10.81
2018-04-06T10:58:00.193Z,10.86
2018-04-06T10:59:09.026Z,10.92
2018-04-06T11:00:17.911Z,10.97
2018-04-06T11:01:26.745Z,11
2018-04-06T11:02:35.627Z,10.99
2018-04-06T11:03:44.465Z,11.03
2018-04-06T11:04:53.298Z,11.06
2018-04-06T11:06:02.282Z,11.07
2018-04-06T11:07:11.670Z,11.03
2018-04-06T11:08:20.508Z,11.24
2018-04-06T11:09:29.345Z,11.25
2018-04-06T11:10:38.182Z,11.28
2018-04-06T11:11:47.062Z,11.28
2018-04-06T11:12:55.899Z,11.27
2018-04-06T11:14:05.013Z,11.21
2018-04-06T11:15:13.850Z,11.28
2018-04-06T11:16:22.719Z,11.37
2018-04-06T11:17:31.670Z,11.29
2018-04-06T11:18:40.785Z,11.4
2018-04-06T11:19:49.624Z,11.43
2018-04-06T11:20:58.458Z,11.49
2018-04-06T11:22:07.304Z,11.36
2018-04-06T11:23:16.426Z,11.37
2018-04-06T11:24:25.264Z,11.51
2018-04-06T11:25:34.116Z,11.55
2018-04-06T11:26:42.955Z,11.65
2018-04-06T11:27:51.793Z,11.78
2018-04-06T11:29:00.628Z,11.85
2018-04-06T11:30:09.464Z,11.83
2018-04-06T11:31:18.361Z,11.83
2018-04-06T11:32:27.210Z,11.8
2018-04-06T11:33:36.065Z,11.91
2018-04-06T11:34:45.053Z,11.79
2018-04-06T11:35:53.891Z,11.78
2018-04-06T11:37:02.730Z,11.76
2018-04-06T11:38:11.879Z,11.76
2018-04-06T11:39:20.711Z,11.62
2018-04-06T11:40:29.549Z,11.64
2018-04-06T11:41:38.384Z,11.79
2018-04-06T11:42:47.223Z,11.79
2018-04-06T11:43:56.062Z,11.8
2018-04-06T11:45:05.177Z,11.88
2018-04-06T11:46:14.345Z,12.07
2018-04-06T11:47:23.460Z,12.19
2018-04-06T11:48:32.317Z,12.37
2018-04-06T11:49:41.429Z,12.39
2018-04-06T11:50:50.270Z,12.47
2018-04-06T11:51:59.535Z,12.46
2018-04-06T11:53:08.372Z,12.38
2018-04-06T11:54:17.214Z,12.35
2018-04-06T11:55:26.050Z,12.27
2018-04-06T11:56:34.884Z,12.31
2018-04-06T11:57:43.769Z,12.49
2018-04-06T11:58:52.634Z,12.45
2018-04-06T12:00:01.467Z,12.62
2018-04-06T12:01:10.308Z,12.65
2018-04-06T12:02:19.145Z,12.7
2018-04-06T12:03:28.035Z,12.82
2018-04-06T12:04:36.882Z,12.78
2018-04-06T12:05:46.192Z,12.87
2018-04-06T12:06:55.882Z,12.82
2018-04-06T12:08:05.371Z,12.92
2018-04-06T12:09:14.743Z,12.86
2018-04-06T12:10:23.653Z,12.92
2018-04-06T12:11:32.553Z,13.04
2018-04-06T12:12:42.043Z,13.25
2018-04-06T12:13:52.217Z,13.23
2018-04-06T12:15:01.233Z,13.29
2018-04-06T12:16:10.109Z,13.32
2018-04-06T12:17:19.243Z,13.46
2018-04-06T12:18:28.395Z,13.49
2018-04-06T12:19:38.740Z,13.44
2018-04-06T12:20:47.871Z,13.46
2018-04-06T12:21:57.235Z,13.49
2018-04-06T12:23:07.021Z,13.51
2018-04-06T12:24:16.058Z,13.48
2018-04-06T12:25:25.263Z,13.55
2018-04-06T12:26:34.544Z,13.79
2018-04-06T12:27:43.701Z,13.79
2018-04-06T12:28:52.888Z,13.77
2018-04-06T12:30:02.418Z,13.54
2018-04-06T12:31:11.329Z,13.73
2018-04-06T12:32:21.054Z,13.82
2018-04-06T12:33:30.195Z,13.97
2018-04-06T12:34:39.080Z,13.92
2018-04-06T12:35:48.290Z,14.04
2018-04-06T12:36:57.144Z,14.1
2018-04-06T12:38:05.991Z,14.36
2018-04-06T12:39:14.870Z,14.22
2018-04-06T12:40:23.714Z,14.09
2018-04-06T12:41:32.780Z,14.25
2018-04-06T12:42:41.648Z,14.4
2018-04-06T12:43:50.493Z,14.52
2018-04-06T12:44:59.335Z,14.64
2018-04-06T12:46:08.188Z,14.72
2018-04-06T12:47:17.033Z,14.81
2018-04-06T12:48:26.155Z,14.84
2018-04-06T12:49:35.001Z,14.77
2018-04-06T12:50:43.851Z,14.7
2018-04-06T12:51:52.726Z,14.62
2018-04-06T12:53:01.579Z,14.81
2018-04-06T12:54:10.424Z,14.83
2018-04-06T12:55:19.271Z,14.62
2018-04-06T12:56:28.397Z,14.61
2018-04-06T12:57:37.242Z,14.75
2018-04-06T12:58:46.094Z,14.78
2018-04-06T12:59:54.939Z,14.81
2018-04-06T13:01:04.064Z,15.01
2018-04-06T13:02:12.910Z,14.98
2018-04-06T13:03:21.753Z,14.91
2018-04-06T13:04:30.597Z,14.81
2018-04-06T13:05:39.725Z,14.99
2018-04-06T13:06:48.851Z,14.94
2018-04-06T13:07:57.697Z,15.1
2018-04-06T13:09:06.651Z,15.29
2018-04-06T13:10:15.553Z,15.2
2018-04-06T13:11:24.354Z,15.23
2018-04-06T13:12:33.478Z,15.46
2018-04-06T13:13:42.325Z,15.57
2018-04-06T13:14:51.504Z,15.43
2018-04-06T13:16:00.628Z,15.39
2018-04-06T13:17:09.474Z,15.54
2018-04-06T13:18:18.613Z,15.65
2018-04-06T13:19:27.458Z,15.65
2018-04-06T13:20:36.726Z,15.25
2018-04-06T13:21:45.574Z,15.34
2018-04-06T13:22:54.419Z,15.36
2018-04-06T13:24:03.260Z,15.36
2018-04-06T13:25:12.103Z,15.46
2018-04-06T13:26:21.520Z,15.71
2018-04-06T13:27:30.379Z,15.84
2018-04-06T13:28:39.254Z,16.02
2018-04-06T13:29:48.097Z,16.09
2018-04-06T13:30:56.982Z,16.24
2018-04-06T13:32:06.218Z,16.04
2018-04-06T13:33:15.060Z,15.93
2018-04-06T13:34:24.375Z,16.02
2018-04-06T13:35:33.436Z,15.89
2018-04-06T13:36:42.290Z,16.01
2018-04-06T13:37:51.225Z,16.45
2018-04-06T13:39:00.075Z,16.46
2018-04-06T13:40:08.918Z,16.28
2018-04-06T13:41:17.797Z,16.23
2018-04-06T13:42:26.638Z,16.43
2018-04-06T13:43:35.542Z,16.31
2018-04-06T13:44:44.376Z,16.28
2018-04-06T13:45:53.252Z,16.04
2018-04-06T13:47:02.471Z,16.01
2018-04-06T13:48:11.343Z,16.34
2018-04-06T13:49:20.386Z,16.3
2018-04-06T13:50:29.527Z,16.08
2018-04-06T13:51:38.691Z,16.28
2018-04-06T13:52:47.538Z,16.35
2018-04-06T13:53:56.384Z,16.58
2018-04-06T13:55:05.332Z,16.66
2018-04-06T13:56:14.192Z,16.83
2018-04-06T13:57:23.043Z,16.91
2018-04-06T13:58:31.922Z,16.81
2018-04-06T13:59:41.100Z,16.93
2018-04-06T14:00:49.958Z,16.97
2018-04-06T14:01:59.078Z,17.16
2018-04-06T14:03:07.926Z,17.23
2018-04-06T14:04:16.775Z,17.41
2018-04-06T14:05:25.896Z,17.46
2018-04-06T14:06:35.170Z,17.71
2018-04-06T14:07:43.993Z,17.58
2018-04-06T14:08:53.126Z,17.86
2018-04-06T14:10:01.979Z,18.05
2018-04-06T14:11:10.829Z,17.89
2018-04-06T14:12:19.980Z,17.66
2018-04-06T14:13:28.849Z,17.74
2018-04-06T14:14:37.702Z,17.56
2018-04-06T14:15:46.863Z,17.62
2018-04-06T14:16:56.316Z,17.92
2018-04-06T14:18:05.618Z,17.95
2018-04-06T14:19:14.532Z,18.11
2018-04-06T14:20:23.406Z,18.21
2018-04-06T14:21:32.255Z,18.1
2018-04-06T14:22:41.111Z,18.32
2018-04-06T14:23:50.427Z,18.52
2018-04-06T14:24:59.278Z,18.78
2018-04-06T14:26:08.408Z,18.87
2018-04-06T14:27:17.463Z,19.06
2018-04-06T14:28:26.344Z,18.99
2018-04-06T14:29:35.320Z,18.95
2018-04-06T14:30:44.174Z,18.87
2018-04-06T14:31:53.026Z,19.1
2018-04-06T14:33:01.933Z,18.55
2018-04-06T14:34:10.789Z,18.32
2018-04-06T14:35:19.692Z,18.57
2018-04-06T14:36:28.544Z,18.55
2018-04-06T14:37:37.409Z,18.29
2018-04-06T14:38:46.275Z,18.52
2018-04-06T14:39:55.105Z,18.87
2018-04-06T14:41:04.014Z,18.41
2018-04-06T14:42:12.867Z,18.3
2018-04-06T14:43:21.723Z,18.55
2018-04-06T14:44:30.570Z,18.85
2018-04-06T14:45:39.422Z,18.76
2018-04-06T14:46:48.321Z,18.99
2018-04-06T14:47:57.451Z,18.33
2018-04-06T14:49:06.317Z,18.26
2018-04-06T14:50:15.218Z,17.79
2018-04-06T14:51:24.071Z,17.93
2018-04-06T14:52:32.984Z,17.93
2018-04-06T14:53:41.912Z,17.7
2018-04-06T14:54:50.796Z,17.97
2018-04-06T14:55:59.696Z,18.14
2018-04-06T14:57:08.553Z,18.35
2018-04-06T14:58:17.606Z,17.95
2018-04-06T14:59:26.457Z,18.1
2018-04-06T15:00:35.587Z,18.21
2018-04-06T15:01:44.436Z,18.29
2018-04-06T15:02:53.290Z,18.21
2018-04-06T15:04:02.489Z,17.89
2018-04-06T15:05:11.338Z,17.74
2018-04-06T15:06:20.210Z,17.64
2018-04-06T15:07:29.041Z,17.68
2018-04-06T15:08:37.892Z,17.71
2018-04-06T15:09:47.022Z,17.81
2018-04-06T15:10:56.146Z,17.75
2018-04-06T15:12:05.000Z,17.63